WetterOnline ( https://www.wetteronline.de )

Wetter aktuell Prag

Aktuelles Wetter: Prag-Kbely (287m)

6-stündlich | Neueste Meldungen
Ortszeit Temperatur Wetter
Sa, 25.06. 8:00 17.6° C bedeckt
Sa, 25.06. 2:00 17.6° C bewölkt
Fr, 24.06. 20:00 18.0° C bewölkt
Fr, 24.06. 14:00 26.9° C wolkig
Fr, 24.06. 8:00 19.8° C wolkenlos
Fr, 24.06. 2:00 15.8° C wolkenlos
Do, 23.06. 20:00 26.9° C wolkenlos
Do, 23.06. 14:00 28.0° C wolkenlos
Ortszeit Temperatur Wetter
Sa, 25.06. 9:00 17.6° C leichter Regen
Sa, 25.06. 8:00 17.6° C bedeckt
Sa, 25.06. 7:00 17.3° C bedeckt, nach Regen
Sa, 25.06. 6:00 17.4° C Regen
Sa, 25.06. 5:00 17.4° C starker Regen
Sa, 25.06. 4:00 17.7° C leichter Regen
Sa, 25.06. 3:00 17.8° C leichter Regen
Ortszeit Relative Feuchte Sichtweite
Sa, 25.06. 8:00 96% 10 km
Sa, 25.06. 2:00 98% 4.0 km
Fr, 24.06. 20:00 94% 15 km
Fr, 24.06. 14:00 47% 30 km
Fr, 24.06. 8:00 57% 30 km
Fr, 24.06. 2:00 72% 30 km
Do, 23.06. 20:00 28% 30 km
Do, 23.06. 14:00 29% 30 km
Ortszeit Relative Feuchte Sichtweite
Sa, 25.06. 9:00 97% 10 km
Sa, 25.06. 8:00 96% 10 km
Sa, 25.06. 7:00 98% 5.0 km
Sa, 25.06. 6:00 99% 2.0 km
Sa, 25.06. 5:00 99% 1.5 km
Sa, 25.06. 4:00 98% 2.0 km
Sa, 25.06. 3:00 96% 8 km
Ortszeit Niederschlagsmenge Niederschlagsart
Sa, 25.06. 8:00 37 l/m2 in 12 Std. Regen
Sa, 25.06. 2:00 10 l/m2 in 6 Std. Gewitter, Regen
Fr, 24.06. 20:00 6 l/m2 in 12 Std. Gewitter, Regen
Fr, 24.06. 14:00 0.0 l/m2 in 6 Std. -
Fr, 24.06. 8:00 0.0 l/m2 in 12 Std. -
Fr, 24.06. 2:00 0.0 l/m2 in 6 Std. -
Do, 23.06. 20:00 0.0 l/m2 in 12 Std. -
Do, 23.06. 14:00 0.0 l/m2 in 6 Std. -
Ortszeit Niederschlagsmenge Niederschlagsart
Sa, 25.06. 9:00 3.0 l/m2 in 1 Std. Regen
Sa, 25.06. 8:00 0.0 l/m2 in 1 Std. Regen
Sa, 25.06. 7:00 3.0 l/m2 in 1 Std. Regen
Sa, 25.06. 6:00 12.0 l/m2 in 1 Std. Regen
Sa, 25.06. 5:00 11.0 l/m2 in 1 Std. Regen
Sa, 25.06. 4:00 1.0 l/m2 in 1 Std. Regen
Sa, 25.06. 3:00 0.1 l/m2 in 1 Std. Regen
Ortszeit Stärke Spitze Richtung
km/h Bft. km/h Grad Sektor
Sa, 25.06. 8:00 14 3 - 300° NW
Sa, 25.06. 2:00 7 2 - 320° NW
Fr, 24.06. 20:00 7 2 43 50° NO
Fr, 24.06. 14:00 18 3 - 150° SO
Fr, 24.06. 8:00 14 3 - 80° O
Fr, 24.06. 2:00 11 2 - 70° O
Do, 23.06. 20:00 14 3 - 90° O
Do, 23.06. 14:00 11 2 - 100° O
Ortszeit Stärke Spitze Richtung
km/h Bft. km/h Grad Sektor
Sa, 25.06. 9:00 14 3 - 300° NW
Sa, 25.06. 8:00 14 3 - 300° NW
Sa, 25.06. 7:00 11 2 - 310° NW
Sa, 25.06. 6:00 14 3 - 280° W
Sa, 25.06. 5:00 14 3 - 260° W
Sa, 25.06. 4:00 11 2 - 230° SW
Sa, 25.06. 3:00 11 2 - 290° W
Ortszeit Untergrenze Bedeckung Gattung
total tief tief mittel hoch
Sa, 25.06. 8:00 120 m 8/8 8/8 Sc - -
Sa, 25.06. 2:00 60 m 7/8 7/8 Sc - -
Fr, 24.06. 20:00 120 m 7/8 7/8 Cu - -
Fr, 24.06. 14:00 1500 m 7/8 4/8 Cu Ac -
Fr, 24.06. 8:00 - 0/8 0/8 - - -
Fr, 24.06. 2:00 - 0/8 0/8 - - -
Do, 23.06. 20:00 - 0/8 0/8 - - -
Do, 23.06. 14:00 - 0/8 0/8 - - -
Ortszeit Bedeckungsgrad in Achtel und Wolkenuntergrenze
Sa, 25.06. 9:00 4(90m) 8(150m)
Sa, 25.06. 8:00 3(120m) 8(390m)
Sa, 25.06. 7:00 3(120m) 8(900m)
Sa, 25.06. 6:00 3(150m) 8(900m)
Sa, 25.06. 5:00 3(60m) 8(300m)
Sa, 25.06. 4:00 3(150m) 7(1200m)
Sa, 25.06. 3:00 7(1200m)
Ortszeit Luftdruck NN (hPa) Tendenz (hPa in 3 Std.)
Sa, 25.06. 8:00 1012 + 1,5
Sa, 25.06. 2:00 1010 - 0,3
Fr, 24.06. 20:00 1009 - 1,0
Fr, 24.06. 14:00 1008 - 1,1
Fr, 24.06. 8:00 1012 - 0,7
Fr, 24.06. 2:00 1013 + 0,1
Do, 23.06. 20:00 1012 - 0,6
Do, 23.06. 14:00 1014 - 1,0
Ortszeit Luftdruck NN (hPa) Tendenz (hPa in 3 Std.)
Sa, 25.06. 9:00 1012 + 1,9
Sa, 25.06. 8:00 1012 + 1,5
Sa, 25.06. 7:00 1011 + 0,9
Sa, 25.06. 6:00 1010 + 0,8
Sa, 25.06. 5:00 1010 + 0,5
Sa, 25.06. 4:00 1010 + 1,0
Sa, 25.06. 3:00 1009 - 0,4
Ortszeit Schneehöhe (cm)
Sa, 25.06. 8:00 -
Sa, 25.06. 2:00 -
Fr, 24.06. 20:00 0
Fr, 24.06. 14:00 -
Fr, 24.06. 8:00 0
Fr, 24.06. 2:00 -
Do, 23.06. 20:00 -
Do, 23.06. 14:00 -
Ortszeit Schneehöhe (cm)
Sa, 25.06. 9:00 -
Sa, 25.06. 8:00 -
Sa, 25.06. 7:00 -
Sa, 25.06. 6:00 -
Sa, 25.06. 5:00 -
Sa, 25.06. 4:00 -
Sa, 25.06. 3:00 -
Link zu dieser Seite / Seite empfehlen

Das Wetter in ...